Time;durP1;ratioP1;P1;durP2;ratioP2;P2;SDS_P1;SDS_P2;PMS_P1;PMS_P2;Temp;Humidity;BMP_temperature;BMP_pressure;BME280_temperature;BME280_humidity;BME280_pressure;Samples;Min_cycle;Max_cycle;Signal;HPM_P1;HPM_P2
2024/04/21 01:08:16;;;;;;;6.18;4.57;;;;;;;6.94;63.46;95171.84;5425873;26;20414;-48
2024/04/21 01:10:42;;;;;;;5.72;4.70;;;;;;;6.81;63.88;95167.09;5433136;26;20015;-46
2024/04/21 01:13:11;;;;;;;6.10;4.68;;;;;;;7.12;62.79;95160.59;5438880;26;20003;-45
2024/04/21 01:15:36;;;;;;;5.28;4.78;;;;;;;7.18;62.64;95154.81;5438953;26;20010;-46
2024/04/21 01:18:04;;;;;;;5.13;4.50;;;;;;;7.00;63.12;95152.31;5433428;26;20003;-45
2024/04/21 01:20:33;;;;;;;6.43;5.32;;;;;;;7.08;63.23;95154.13;5447381;26;20007;-46
2024/04/21 01:22:58;;;;;;;5.38;4.88;;;;;;;7.12;62.91;95147.66;5427557;26;20077;-45
2024/04/21 01:25:25;;;;;;;5.55;4.90;;;;;;;7.11;63.10;95146.06;5435452;26;20011;-45
2024/04/21 01:27:51;;;;;;;5.18;4.65;;;;;;;7.13;62.33;95142.31;5447064;26;20031;-46
2024/04/21 01:30:16;;;;;;;5.65;4.82;;;;;;;7.06;62.81;95136.16;5443590;26;19999;-46
2024/04/21 01:32:41;;;;;;;6.20;5.00;;;;;;;6.88;63.28;95130.31;5419651;26;20708;-45
2024/04/21 01:35:07;;;;;;;6.57;5.15;;;;;;;6.95;62.90;95134.69;5446649;26;20003;-46
2024/04/21 01:37:32;;;;;;;6.45;5.10;;;;;;;6.92;63.01;95132.41;5448473;26;20021;-45
2024/04/21 01:39:58;;;;;;;6.35;4.70;;;;;;;6.96;62.57;95128.53;5442625;26;20007;-45
2024/04/21 01:42:23;;;;;;;5.72;4.90;;;;;;;6.87;62.91;95116.56;5412258;26;20450;-46
2024/04/21 01:44:49;;;;;;;5.45;4.65;;;;;;;6.85;63.00;95119.31;5438831;26;20013;-46
2024/04/21 01:47:14;;;;;;;6.40;4.88;;;;;;;7.05;61.69;95117.25;5416532;26;20010;-45
2024/04/21 01:49:40;;;;;;;6.07;4.82;;;;;;;6.98;61.43;95105.91;5440569;26;20003;-46
2024/04/21 01:52:06;;;;;;;5.70;4.60;;;;;;;6.75;62.28;95117.81;5443590;26;20014;-46
2024/04/21 01:54:32;;;;;;;5.47;4.40;;;;;;;6.72;62.98;95112.94;5442185;26;20000;-50
2024/04/21 01:56:57;;;;;;;6.00;4.85;;;;;;;6.87;62.07;95103.63;5419921;26;20329;-49
2024/04/21 01:59:22;;;;;;;5.13;4.60;;;;;;;6.76;62.21;95101.31;5449674;26;20073;-49
2024/04/21 02:01:48;;;;;;;4.80;4.30;;;;;;;6.33;62.68;95100.53;5448956;26;20011;-48
2024/04/21 02:04:13;;;;;;;5.25;4.75;;;;;;;5.86;63.95;95097.31;5445572;26;20006;-51
2024/04/21 02:06:40;;;;;;;5.57;4.53;;;;;;;6.22;62.91;95097.22;5441425;26;19999;-47
2024/04/21 02:09:05;;;;;;;6.00;4.43;;;;;;;6.53;62.27;95091.56;5449391;26;20017;-52
2024/04/21 02:11:30;;;;;;;6.63;4.40;;;;;;;6.48;62.15;95098.97;5431066;26;20000;-46
2024/04/21 02:13:56;;;;;;;5.22;4.38;;;;;;;6.16;63.21;95090.09;5447414;26;20011;-46
2024/04/21 02:16:21;;;;;;;5.43;4.85;;;;;;;6.13;63.14;95087.84;5451178;26;20013;-48
2024/04/21 02:18:46;;;;;;;6.00;4.82;;;;;;;6.09;63.62;95081.34;5450946;26;20103;-49
2024/04/21 02:21:12;;;;;;;5.68;4.80;;;;;;;6.13;64.00;95082.66;5413648;26;20028;-50
2024/04/21 02:23:37;;;;;;;7.18;5.65;;;;;;;6.23;63.56;95080.78;5447790;26;20006;-52
2024/04/21 02:26:03;;;;;;;5.40;4.90;;;;;;;6.53;62.27;95075.25;5448885;26;19999;-48
2024/04/21 02:28:28;;;;;;;5.68;4.75;;;;;;;6.64;62.26;95065.44;5449314;26;20011;-51
2024/04/21 02:30:54;;;;;;;5.65;4.53;;;;;;;6.37;63.03;95066.47;5448866;26;20011;-51
2024/04/21 02:33:24;;;;;;;6.95;5.20;;;;;;;6.44;62.52;95062.28;5451185;26;20014;-49
2024/04/21 02:35:52;;;;;;;6.05;4.30;;;;;;;6.53;62.11;95057.16;5447759;26;19999;-51
2024/04/21 02:38:18;;;;;;;5.57;4.95;;;;;;;6.64;61.88;95067.22;5450873;26;20071;-48
2024/04/21 02:40:43;;;;;;;5.68;4.35;;;;;;;6.39;62.53;95053.41;5414104;26;20015;-48
2024/04/21 02:43:08;;;;;;;4.70;4.20;;;;;;;6.48;62.03;95052.47;5446048;26;20044;-50
2024/04/21 02:45:34;;;;;;;6.13;4.85;;;;;;;6.70;61.85;95052.84;5449277;26;20083;-49
2024/04/21 02:48:00;;;;;;;6.00;4.97;;;;;;;6.80;61.72;95061.28;5432989;26;20407;-47
2024/04/21 02:50:25;;;;;;;6.70;5.20;;;;;;;6.70;62.51;95051.09;5447975;26;20123;-51
2024/04/21 02:52:51;;;;;;;7.10;5.28;;;;;;;6.82;62.78;95043.84;5449228;26;20006;-49
2024/04/21 02:55:17;;;;;;;7.97;5.40;;;;;;;6.89;62.04;95036.25;5444722;26;20014;-49
2024/04/21 02:57:42;;;;;;;7.47;5.53;;;;;;;6.96;61.72;95035.44;5448781;26;20013;-51
2024/04/21 03:00:08;;;;;;;6.82;5.00;;;;;;;6.56;63.71;95034.41;5448848;26;20007;-49
2024/04/21 03:02:34;;;;;;;8.63;5.57;;;;;;;6.78;62.89;95027.03;5444890;26;20003;-49
2024/04/21 03:04:59;;;;;;;6.18;5.07;;;;;;;6.89;62.35;95025.91;5450213;26;20010;-50
2024/04/21 03:07:24;;;;;;;6.90;5.25;;;;;;;6.79;62.65;95036.41;5410179;26;20037;-53
2024/04/21 03:09:50;;;;;;;7.15;5.35;;;;;;;6.92;62.64;95025.59;5438071;26;20031;-49
2024/04/21 03:12:15;;;;;;;6.40;5.43;;;;;;;6.89;62.09;95018.94;5418430;26;20102;-49
2024/04/21 03:14:40;;;;;;;5.72;4.82;;;;;;;6.74;62.18;95015.38;5447974;26;20004;-52
2024/04/21 03:17:06;;;;;;;5.35;4.75;;;;;;;6.79;62.55;95018.31;5448898;26;19999;-49
2024/04/21 03:19:32;;;;;;;5.97;4.53;;;;;;;7.02;61.35;95024.47;5449888;26;20017;-49
2024/04/21 03:21:57;;;;;;;5.22;4.50;;;;;;;6.83;61.21;95010.09;5450494;26;20002;-49
2024/04/21 03:24:22;;;;;;;7.35;5.03;;;;;;;6.69;62.15;95005.53;5440531;26;20007;-51
2024/04/21 03:26:48;;;;;;;5.93;4.70;;;;;;;6.84;62.03;95011.69;5437627;26;20023;-49
2024/04/21 03:29:14;;;;;;;6.95;5.28;;;;;;;6.90;61.42;95010.25;5447751;26;20017;-49
2024/04/21 03:31:39;;;;;;;6.93;5.18;;;;;;;6.95;61.39;95000.25;5445824;26;20003;-49
2024/04/21 03:34:04;;;;;;;5.90;4.90;;;;;;;7.00;61.52;94999.75;5448110;26;20013;-50
2024/04/21 03:36:30;;;;;;;6.25;5.25;;;;;;;6.81;61.66;95003.44;5439529;26;20007;-48
2024/04/21 03:38:55;;;;;;;7.55;5.35;;;;;;;6.89;61.91;94997.47;5445894;26;20003;-49
2024/04/21 03:41:21;;;;;;;6.00;5.18;;;;;;;6.72;61.89;94991.47;5450092;26;20003;-51
2024/04/21 03:43:47;;;;;;;6.57;5.07;;;;;;;6.74;62.11;94989.53;5388917;26;20056;-50
2024/04/21 03:46:13;;;;;;;7.20;5.40;;;;;;;6.95;61.53;94989.91;5447867;26;20393;-50
2024/04/21 03:48:40;;;;;;;6.20;4.88;;;;;;;6.76;61.54;94974.66;5445173;26;20009;-51
2024/04/21 03:51:05;;;;;;;5.88;5.18;;;;;;;6.96;62.06;94978.56;5448121;26;20014;-50
2024/04/21 03:53:31;;;;;;;9.30;6.35;;;;;;;6.92;62.53;94972.09;5448284;26;20005;-51
2024/04/21 03:55:57;;;;;;;7.30;5.85;;;;;;;7.17;61.48;94959.97;5443055;26;20093;-46
2024/04/21 03:58:22;;;;;;;7.47;5.65;;;;;;;6.98;62.45;94966.28;5415718;26;20018;-51
2024/04/21 04:00:48;;;;;;;7.78;6.00;;;;;;;6.93;62.67;94962.56;5447116;26;19999;-51
2024/04/21 04:03:14;;;;;;;7.05;5.43;;;;;;;6.92;63.10;94968.72;5446045;26;20039;-48
2024/04/21 04:05:44;;;;;;;8.00;5.95;;;;;;;6.93;62.62;94963.41;5429626;26;20039;-50
2024/04/21 04:08:11;;;;;;;8.15;6.50;;;;;;;6.96;62.66;94963.06;5445643;26;20003;-49
2024/04/21 04:10:39;;;;;;;8.38;6.38;;;;;;;6.96;62.76;94959.66;5429552;26;20011;-46
2024/04/21 04:13:05;;;;;;;11.77;7.03;;;;;;;6.90;63.26;94963.72;5449096;26;20021;-51
2024/04/21 04:15:30;;;;;;;9.55;6.93;;;;;;;6.92;63.39;94958.38;5449626;26;19999;-49
2024/04/21 04:17:55;;;;;;;7.88;6.60;;;;;;;6.98;62.63;94955.16;5410272;26;20003;-48
2024/04/21 04:20:21;;;;;;;6.90;5.47;;;;;;;7.07;62.72;94950.78;5415296;26;20003;-47
2024/04/21 04:22:46;;;;;;;8.98;6.40;;;;;;;7.13;62.27;94950.94;5449506;26;20011;-48
2024/04/21 04:25:12;;;;;;;8.15;6.20;;;;;;;7.04;62.76;94950.16;5417805;26;20111;-48
2024/04/21 04:27:37;;;;;;;11.38;6.82;;;;;;;7.21;62.25;94952.69;5449619;26;20006;-50
2024/04/21 04:30:03;;;;;;;9.13;6.88;;;;;;;7.26;61.94;94950.44;5433315;26;19999;-47
2024/04/21 04:32:29;;;;;;;8.55;6.35;;;;;;;7.03;61.30;94940.75;5482049;26;19995;-48
2024/04/21 04:34:54;;;;;;;8.68;6.47;;;;;;;6.98;62.03;94945.59;5401782;26;20068;-46
2024/04/21 04:37:20;;;;;;;10.27;7.57;;;;;;;6.93;62.56;94939.28;5401334;26;20010;-47
2024/04/21 04:39:45;;;;;;;9.07;6.72;;;;;;;6.69;62.81;94943.50;5448164;26;20066;-49
2024/04/21 04:42:11;;;;;;;10.27;7.45;;;;;;;6.82;62.21;94941.25;5441692;26;20338;-46
2024/04/21 04:44:36;;;;;;;9.95;7.18;;;;;;;6.70;62.35;94945.13;5416903;26;20000;-49
2024/04/21 04:47:02;;;;;;;8.48;6.65;;;;;;;6.87;62.08;94934.78;5444416;26;20018;-46
2024/04/21 04:49:27;;;;;;;9.13;7.05;;;;;;;6.87;62.37;94942.53;5447528;26;20018;-45
2024/04/21 04:51:53;;;;;;;10.35;7.13;;;;;;;6.62;63.01;94937.34;5446863;26;20476;-46
2024/04/21 04:54:18;;;;;;;8.57;7.07;;;;;;;6.58;62.50;94943.81;5440491;26;20003;-46
2024/04/21 04:56:44;;;;;;;10.93;7.47;;;;;;;6.57;62.23;94943.00;5441901;26;20099;-45
2024/04/21 04:59:09;;;;;;;7.72;5.82;;;;;;;6.36;61.89;94940.88;5444627;26;20006;-45
2024/04/21 05:01:34;;;;;;;6.90;5.30;;;;;;;6.34;61.16;94940.22;5414468;26;20413;-47
2024/04/21 05:04:00;;;;;;;6.55;5.38;;;;;;;5.96;62.21;94944.94;5438753;26;20080;-45
2024/04/21 05:06:25;;;;;;;6.28;5.43;;;;;;;5.75;62.48;94947.88;5441017;26;19999;-45
2024/04/21 05:08:51;;;;;;;8.07;5.95;;;;;;;5.70;62.79;94954.47;5438990;26;20022;-45
2024/04/21 05:11:16;;;;;;;6.97;5.60;;;;;;;5.58;62.83;94951.31;5438838;26;20010;-44
2024/04/21 05:13:42;;;;;;;6.60;5.20;;;;;;;5.80;61.80;94948.22;5442949;26;19999;-44
2024/04/21 05:16:07;;;;;;;6.07;5.00;;;;;;;5.59;62.32;94951.19;5444219;26;20030;-43
2024/04/21 05:18:33;;;;;;;6.15;4.80;;;;;;;5.54;62.58;94945.69;5409461;26;20035;-44
2024/04/21 05:20:58;;;;;;;6.47;4.95;;;;;;;5.39;62.83;94949.78;5444180;26;20070;-44
2024/04/21 05:23:23;;;;;;;5.55;4.70;;;;;;;5.33;63.48;94950.38;5414105;26;20022;-44
2024/04/21 05:25:49;;;;;;;6.90;5.28;;;;;;;4.85;64.30;94949.88;5444918;26;20518;-45
2024/04/21 05:28:15;;;;;;;5.55;4.60;;;;;;;5.18;63.07;94944.97;5444010;26;20010;-45
2024/04/21 05:30:40;;;;;;;6.63;5.00;;;;;;;5.20;62.95;94943.88;5449700;26;20038;-47
2024/04/21 05:33:06;;;;;;;5.65;4.60;;;;;;;5.37;61.96;94944.78;5447910;26;19998;-45
2024/04/21 05:35:31;;;;;;;7.32;5.07;;;;;;;4.95;63.11;94932.59;5414773;26;20003;-45
2024/04/21 05:37:58;;;;;;;7.15;5.10;;;;;;;5.09;62.76;94942.34;5449049;26;20017;-45
2024/04/21 05:40:23;;;;;;;5.70;4.57;;;;;;;4.75;63.86;94933.69;5442828;26;20007;-48
2024/04/21 05:42:48;;;;;;;6.03;4.80;;;;;;;4.89;63.79;94928.00;5447739;26;20391;-46
2024/04/21 05:45:14;;;;;;;6.47;4.53;;;;;;;5.03;63.51;94935.22;5446239;26;19995;-47
2024/04/21 05:47:40;;;;;;;5.93;4.45;;;;;;;4.74;64.45;94926.91;5415864;26;20521;-44
2024/04/21 05:50:06;;;;;;;5.00;4.10;;;;;;;5.04;63.36;94921.34;5446785;26;20031;-45
2024/04/21 05:52:32;;;;;;;4.45;3.90;;;;;;;5.32;62.87;94931.53;5448147;26;19995;-48
2024/04/21 05:54:57;;;;;;;4.78;3.92;;;;;;;5.40;62.28;94928.97;5447946;26;20359;-47
2024/04/21 05:57:23;;;;;;;5.15;4.00;;;;;;;5.44;62.62;94924.34;5447731;26;19994;-46
2024/04/21 05:59:48;;;;;;;5.00;4.03;;;;;;;5.49;62.62;94927.28;5446087;26;20366;-48
2024/04/21 06:02:13;;;;;;;7.82;4.72;;;;;;;5.41;63.31;94929.81;5416601;26;20005;-47
2024/04/21 06:04:39;;;;;;;5.63;4.53;;;;;;;5.05;63.95;94928.13;5440908;26;20000;-46
2024/04/21 06:07:05;;;;;;;6.28;5.10;;;;;;;5.17;63.54;94927.88;5381354;26;20073;-47
2024/04/21 06:09:31;;;;;;;8.10;5.80;;;;;;;5.09;64.17;94928.66;5434103;26;20366;-46
2024/04/21 06:11:56;;;;;;;7.53;4.50;;;;;;;5.18;63.75;94929.50;5446545;26;20010;-46
2024/04/21 06:14:21;;;;;;;5.47;4.30;;;;;;;5.15;63.61;94924.66;5385455;26;20006;-44
2024/04/21 06:16:47;;;;;;;4.90;4.20;;;;;;;5.15;63.39;94924.66;5443753;26;20014;-45
2024/04/21 06:19:12;;;;;;;4.68;3.92;;;;;;;5.20;63.04;94923.25;5413242;26;20451;-44
2024/04/21 06:21:37;;;;;;;4.10;3.70;;;;;;;5.39;62.49;94922.22;5413750;26;20036;-44
2024/04/21 06:24:03;;;;;;;4.38;3.65;;;;;;;5.26;62.64;94917.47;5444014;26;19999;-47
2024/04/21 06:26:28;;;;;;;4.57;3.67;;;;;;;4.97;63.92;94922.94;5438480;26;20446;-46
2024/04/21 06:28:53;;;;;;;4.65;3.47;;;;;;;5.13;63.31;94922.22;5413984;26;20004;-48
2024/04/21 06:31:19;;;;;;;6.28;4.18;;;;;;;5.24;62.66;94914.25;5446634;26;20013;-46
2024/04/21 06:33:44;;;;;;;5.57;4.97;;;;;;;5.22;62.58;94912.78;5417538;26;20009;-49
2024/04/21 06:36:09;;;;;;;5.55;4.05;;;;;;;5.13;62.93;94908.53;5446431;26;20338;-47
2024/04/21 06:38:35;;;;;;;5.18;4.28;;;;;;;5.10;63.21;94912.19;5433412;26;20003;-47
2024/04/21 06:41:00;;;;;;;4.32;3.75;;;;;;;5.21;62.92;94913.72;5445335;26;20073;-49
2024/04/21 06:43:25;;;;;;;6.07;4.20;;;;;;;5.62;61.19;94908.81;5468300;26;20508;-46
2024/04/21 06:45:51;;;;;;;5.10;3.92;;;;;;;5.59;61.16;94909.91;5405958;26;20000;-48
2024/04/21 06:48:17;;;;;;;5.07;4.50;;;;;;;5.41;61.73;94907.41;5443898;26;19999;-44
2024/04/21 06:50:43;;;;;;;5.38;4.07;;;;;;;5.31;62.22;94908.47;5444857;26;19995;-47
2024/04/21 06:53:08;;;;;;;5.63;4.82;;;;;;;4.90;63.83;94907.25;5446994;26;20003;-48
2024/04/21 06:55:34;;;;;;;6.93;5.28;;;;;;;4.77;64.41;94903.44;5444801;26;19994;-49
2024/04/21 06:57:59;;;;;;;7.03;4.57;;;;;;;4.83;64.67;94908.00;5442592;26;20042;-49
2024/04/21 07:00:24;;;;;;;5.78;4.82;;;;;;;5.06;63.61;94900.56;5445955;26;19998;-46
2024/04/21 07:02:50;;;;;;;5.10;4.60;;;;;;;4.98;63.95;94898.75;5408381;26;19995;-47
2024/04/21 07:05:15;;;;;;;5.28;4.07;;;;;;;4.94;63.96;94900.03;5444797;26;20016;-46
2024/04/21 07:07:40;;;;;;;4.78;3.70;;;;;;;4.82;64.84;94902.03;5410377;26;20004;-45
2024/04/21 07:10:06;;;;;;;5.80;4.72;;;;;;;4.60;65.46;94892.19;5435940;26;20002;-45
2024/04/21 07:12:32;;;;;;;5.95;4.60;;;;;;;5.09;64.49;94895.94;5442729;26;20367;-46
2024/04/21 07:14:57;;;;;;;5.20;4.47;;;;;;;5.26;64.12;94898.63;5441811;26;20006;-45
2024/04/21 07:17:23;;;;;;;6.30;5.03;;;;;;;5.65;63.00;94898.97;5432745;26;19995;-49
2024/04/21 07:19:48;;;;;;;5.43;4.25;;;;;;;5.76;62.66;94897.06;5450413;26;20043;-47
2024/04/21 07:22:14;;;;;;;5.38;4.55;;;;;;;5.65;62.79;94895.56;5439125;26;20003;-47
2024/04/21 07:24:39;;;;;;;4.82;4.32;;;;;;;5.67;63.24;94901.38;5442357;26;20236;-48
2024/04/21 07:27:04;;;;;;;5.35;4.40;;;;;;;5.69;63.20;94896.88;5443739;26;20014;-50
2024/04/21 07:29:30;;;;;;;4.80;4.30;;;;;;;5.92;62.45;94894.56;5435500;26;20025;-51
2024/04/21 07:31:56;;;;;;;5.60;4.35;;;;;;;5.93;62.56;94895.38;5445029;26;20003;-51
2024/04/21 07:34:21;;;;;;;5.80;5.00;;;;;;;5.47;64.07;94893.88;5448382;26;20017;-47
2024/04/21 07:36:47;;;;;;;8.02;5.10;;;;;;;5.76;63.74;94890.13;5449441;26;20335;-52
2024/04/21 07:39:13;;;;;;;8.38;5.57;;;;;;;6.03;63.73;94894.28;5446675;26;20015;-49
2024/04/21 07:41:40;;;;;;;6.18;5.05;;;;;;;6.44;62.80;94896.16;5448305;26;20018;-47
2024/04/21 07:44:06;;;;;;;7.05;5.30;;;;;;;6.68;61.92;94897.94;5448138;26;20100;-49
2024/04/21 07:46:31;;;;;;;6.30;5.13;;;;;;;6.43;63.92;94897.09;5439423;26;20011;-47
2024/04/21 07:48:58;;;;;;;6.05;5.03;;;;;;;6.81;61.88;94897.44;5440930;26;20013;-52
2024/04/21 07:51:23;;;;;;;6.15;4.47;;;;;;;6.83;61.57;94890.34;5443903;26;20079;-52
2024/04/21 07:53:49;;;;;;;4.68;4.20;;;;;;;6.71;61.99;94894.25;5447369;26;20011;-50
2024/04/21 07:56:14;;;;;;;5.18;4.45;;;;;;;6.75;62.09;94893.75;5443802;26;20003;-49
2024/04/21 07:58:39;;;;;;;5.65;4.20;;;;;;;6.84;61.37;94889.38;5444527;26;20011;-53
2024/04/21 08:01:08;;;;;;;5.68;4.60;;;;;;;6.78;62.15;94888.25;5448448;26;20068;-47
2024/04/21 08:03:34;;;;;;;4.40;4.00;;;;;;;6.75;62.56;94887.78;5449413;26;20015;-47
2024/04/21 08:06:02;;;;;;;4.93;4.25;;;;;;;6.95;61.57;94886.47;5441882;26;20441;-49
2024/04/21 08:08:28;;;;;;;6.18;4.47;;;;;;;7.14;61.37;94887.06;5447105;26;19998;-50
2024/04/21 08:10:56;;;;;;;5.82;4.18;;;;;;;6.84;61.81;94882.44;5401439;26;20009;-52
2024/04/21 08:13:21;;;;;;;6.03;4.30;;;;;;;6.98;61.50;94883.53;5442663;26;20118;-50
2024/04/21 08:15:46;;;;;;;5.63;3.97;;;;;;;7.07;60.95;94884.34;5447118;26;20009;-47
2024/04/21 08:18:12;;;;;;;6.43;4.47;;;;;;;7.03;60.90;94870.94;5434410;26;20018;-51
2024/04/21 08:20:38;;;;;;;5.25;4.43;;;;;;;7.13;61.30;94872.53;5404055;26;20003;-51
2024/04/21 08:23:04;;;;;;;7.88;4.13;;;;;;;7.06;62.09;94869.78;5445721;26;19999;-49
2024/04/21 08:25:29;;;;;;;6.20;4.38;;;;;;;7.27;61.38;94877.03;5441904;26;19999;-51
2024/04/21 08:27:55;;;;;;;4.70;3.90;;;;;;;7.18;60.85;94871.09;5444704;26;19998;-50
2024/04/21 08:30:20;;;;;;;4.63;4.13;;;;;;;7.53;61.10;94866.44;5447664;26;20003;-53
2024/04/21 08:32:46;;;;;;;5.85;4.30;;;;;;;7.66;60.97;94865.94;5448242;26;20018;-49
2024/04/21 08:35:12;;;;;;;4.95;4.28;;;;;;;7.58;60.49;94866.75;5438607;26;19994;-49
2024/04/21 08:37:37;;;;;;;5.05;4.13;;;;;;;7.63;59.74;94866.25;5443772;26;20077;-49
2024/04/21 08:40:03;;;;;;;6.30;4.18;;;;;;;7.47;59.50;94853.38;5434301;26;20003;-52
2024/04/21 08:42:34;;;;;;;4.95;4.22;;;;;;;7.22;61.51;94856.84;5439750;26;20003;-51
2024/04/21 08:45:00;;;;;;;4.93;4.25;;;;;;;7.53;61.30;94848.34;5429509;26;20003;-47
2024/04/21 08:47:28;;;;;;;5.50;3.97;;;;;;;7.69;59.14;94852.66;5439392;26;20083;-46
2024/04/21 08:49:56;;;;;;;5.72;4.30;;;;;;;7.50;60.12;94850.44;5448319;26;20112;-51
2024/04/21 08:52:22;;;;;;;6.05;4.40;;;;;;;7.57;60.97;94835.88;5440355;26;20000;-45
2024/04/21 08:54:48;;;;;;;5.88;4.45;;;;;;;7.74;59.51;94831.44;5445827;26;20088;-47
2024/04/21 08:57:19;;;;;;;6.40;4.85;;;;;;;7.53;59.54;94837.19;5446480;26;20034;-49
2024/04/21 08:59:46;;;;;;;5.82;4.00;;;;;;;7.61;59.91;94834.56;5431871;26;20435;-46
2024/04/21 09:02:12;;;;;;;5.88;4.35;;;;;;;7.85;60.25;94830.25;5443867;26;20018;-47
2024/04/21 09:04:42;;;;;;;6.47;4.80;;;;;;;7.90;59.53;94831.34;5442697;26;19999;-48
2024/04/21 09:07:10;;;;;;;6.97;4.77;;;;;;;7.94;59.91;94821.44;5390292;26;1608626;-48
2024/04/21 09:09:36;;;;;;;6.70;4.85;;;;;;;8.04;59.00;94829.81;5446631;26;20296;-51
2024/04/21 09:12:01;;;;;;;6.90;4.63;;;;;;;8.15;58.37;94818.25;5449049;26;20003;-49
2024/04/21 09:14:27;;;;;;;6.78;4.70;;;;;;;7.98;57.13;94818.34;5407803;26;20002;-46
2024/04/21 09:16:52;;;;;;;4.97;3.65;;;;;;;7.59;57.37;94820.97;5433664;26;20022;-47
2024/04/21 09:19:17;;;;;;;5.93;4.50;;;;;;;7.23;59.24;94808.50;5445386;26;19999;-46
2024/04/21 09:21:43;;;;;;;6.30;3.42;;;;;;;6.83;59.15;94817.97;5447952;26;20009;-47
2024/04/21 09:24:08;;;;;;;5.93;3.88;;;;;;;6.75;59.87;94826.53;5440530;26;19998;-47
2024/04/21 09:26:34;;;;;;;8.75;4.40;;;;;;;6.77;61.04;94829.75;5443466;26;19999;-47
2024/04/21 09:28:59;;;;;;;7.20;4.60;;;;;;;6.97;61.52;94835.41;5435643;26;20018;-45
2024/04/21 09:31:30;;;;;;;7.07;4.88;;;;;;;7.08;60.96;94848.94;5446196;26;20327;-46
2024/04/21 09:33:55;;;;;;;10.32;4.43;;;;;;;6.95;61.13;94841.69;5443778;26;20433;-46
2024/04/21 09:36:23;;;;;;;7.47;4.43;;;;;;;7.16;60.78;94846.34;5445952;26;20010;-48
2024/04/21 09:38:51;;;;;;;4.65;3.72;;;;;;;7.09;60.83;94858.34;5445855;26;20017;-48
2024/04/21 09:41:17;;;;;;;4.80;2.58;;;;;;;7.00;59.98;94855.75;5447546;26;19995;-48
2024/04/21 09:43:43;;;;;;;4.35;3.05;;;;;;;6.99;60.18;94858.50;5446596;26;20003;-46
2024/04/21 09:46:11;;;;;;;6.20;3.47;;;;;;;6.84;60.80;94855.78;5446109;26;20033;-46
2024/04/21 09:48:37;;;;;;;4.53;3.30;;;;;;;7.00;60.65;94863.50;5447432;26;20007;-49
2024/04/21 09:51:04;;;;;;;4.47;3.30;;;;;;;7.02;60.64;94855.59;5442169;26;20011;-50
2024/04/21 09:53:29;;;;;;;3.38;2.97;;;;;;;6.81;61.78;94849.13;5444727;26;19999;-49
2024/04/21 09:55:56;;;;;;;5.28;3.03;;;;;;;6.56;62.35;94843.19;5437071;26;20431;-50
2024/04/21 09:58:27;;;;;;;4.93;3.00;;;;;;;6.81;61.50;94840.59;5452325;26;20000;-46
2024/04/21 10:00:53;;;;;;;2.97;2.63;;;;;;;6.65;62.00;94831.88;5449449;26;20006;-51
2024/04/21 10:03:19;;;;;;;3.40;2.70;;;;;;;6.78;61.26;94830.59;5441168;26;20018;-49
2024/04/21 10:05:50;;;;;;;3.75;2.47;;;;;;;6.74;61.31;94835.28;5433425;26;20010;-47
2024/04/21 10:08:15;;;;;;;2.97;2.28;;;;;;;6.45;62.30;94822.84;5427224;26;20004;-51
2024/04/21 10:10:43;;;;;;;3.20;2.38;;;;;;;6.59;62.67;94817.03;5443858;26;20002;-46
2024/04/21 10:13:09;;;;;;;2.65;2.35;;;;;;;5.95;64.15;94810.84;5446548;26;20025;-48
2024/04/21 10:15:36;;;;;;;3.47;2.22;;;;;;;6.34;62.81;94807.66;5446520;26;20002;-49
2024/04/21 10:18:02;;;;;;;3.17;2.20;;;;;;;5.72;64.21;94792.56;5447896;26;19998;-49
2024/04/21 10:20:31;;;;;;;3.60;2.70;;;;;;;6.35;64.40;94791.22;5447573;26;19998;-48
2024/04/21 10:22:59;;;;;;;3.58;2.75;;;;;;;6.88;63.82;94795.03;5448234;26;20007;-49
2024/04/21 10:25:25;;;;;;;2.28;1.80;;;;;;;7.30;61.38;94809.44;5443927;26;20075;-48
2024/04/21 10:28:07;;;;;;;2.80;2.05;;;;;;;7.60;58.54;94814.84;5445741;26;19999;-47
2024/04/21 10:30:33;;;;;;;3.63;2.22;;;;;;;7.63;58.62;94843.78;5440075;26;20374;-46
2024/04/21 10:33:04;;;;;;;2.15;1.70;;;;;;;7.48;58.03;94855.78;5450145;26;20010;-50
2024/04/21 10:35:34;;;;;;;2.72;2.08;;;;;;;7.21;58.93;94857.00;5468502;26;20014;-48
2024/04/21 10:38:09;;;;;;;3.72;2.13;;;;;;;6.84;59.32;94859.16;5414363;26;19991;-47
2024/04/21 10:40:39;;;;;;;2.47;1.85;;;;;;;6.57;59.80;94870.66;5442906;26;20002;-48
2024/04/21 10:43:05;;;;;;;2.05;1.60;;;;;;;7.10;58.29;94875.44;5442976;26;20018;-47
2024/04/21 10:45:36;;;;;;;54.25;2.08;;;;;;;6.56;58.92;94881.94;5445496;26;20009;-47
2024/04/21 10:48:02;;;;;;;65.57;2.72;;;;;;;6.66;57.80;94884.38;5445208;26;19999;-49
2024/04/21 10:50:27;;;;;;;1.27;0.30;;;;;;;6.16;59.27;94886.09;5445948;26;20008;-50
2024/04/21 10:52:54;;;;;;;70.03;2.58;;;;;;;5.93;59.82;94887.63;5431901;26;19995;-46
2024/04/21 10:55:19;;;;;;;135.18;4.45;;;;;;;5.84;59.54;94894.53;5449385;26;20067;-44
2024/04/21 10:57:45;;;;;;;6.70;0.60;;;;;;;5.29;60.92;94896.56;5450193;26;20006;-46
2024/04/21 11:00:11;;;;;;;0.35;0.30;;;;;;;5.12;61.52;94909.47;5420867;26;19995;-45
2024/04/21 11:02:37;;;;;;;0.25;0.25;;;;;;;4.78;62.88;94907.63;5440717;26;19996;-45
2024/04/21 11:05:02;;;;;;;0.30;0.30;;;;;;;5.07;62.11;94915.91;5447443;26;20003;-44
2024/04/21 11:07:28;;;;;;;0.88;0.20;;;;;;;5.28;61.23;94925.06;5412096;26;19997;-44
2024/04/21 11:09:53;;;;;;;0.22;0.22;;;;;;;4.87;63.08;94928.19;5438916;26;20008;-45
2024/04/21 11:12:19;;;;;;;0.57;0.30;;;;;;;4.91;62.76;94931.22;5441117;26;19999;-45
2024/04/21 11:14:47;;;;;;;0.22;0.22;;;;;;;4.50;63.74;94930.91;5431490;26;20076;-45
2024/04/21 11:17:16;;;;;;;0.40;0.40;;;;;;;4.92;62.54;94932.88;5438658;26;20013;-46
2024/04/21 11:19:41;;;;;;;0.38;0.38;;;;;;;4.93;62.46;94931.94;5444805;26;20019;-47
2024/04/21 11:22:07;;;;;;;1.05;0.82;;;;;;;5.06;62.29;94931.50;5412471;26;20018;-45
2024/04/21 11:24:33;;;;;;;0.70;0.70;;;;;;;5.14;61.78;94939.31;5413930;26;19999;-46
2024/04/21 11:26:59;;;;;;;0.80;0.77;;;;;;;5.19;61.96;94938.84;5443728;26;20071;-45
2024/04/21 11:29:24;;;;;;;1.20;1.10;;;;;;;5.20;62.37;94938.72;5442697;26;20006;-45
2024/04/21 11:31:49;;;;;;;3.22;0.60;;;;;;;5.29;61.86;94944.72;5418443;26;20006;-45
2024/04/21 11:34:16;;;;;;;2.65;0.70;;;;;;;5.54;61.45;94947.44;5412181;26;20094;-46
2024/04/21 11:36:42;;;;;;;28.77;1.48;;;;;;;5.78;59.93;94950.16;5434612;26;20019;-44
2024/04/21 11:39:08;;;;;;;31.15;1.75;;;;;;;5.94;59.99;94951.19;5446280;26;20063;-48
2024/04/21 11:41:33;;;;;;;144.27;4.85;;;;;;;5.71;60.94;94956.88;5447685;26;20007;-46
2024/04/21 11:44:01;;;;;;;238.40;7.18;;;;;;;5.75;60.70;94959.97;5448113;26;20004;-45
2024/04/21 11:46:28;;;;;;;226.93;7.15;;;;;;;5.80;60.19;94960.31;5445328;26;20062;-44
2024/04/21 11:48:53;;;;;;;44.78;2.42;;;;;;;5.70;61.14;94963.03;5440926;26;20071;-45
2024/04/21 11:51:20;;;;;;;17.17;1.88;;;;;;;5.64;61.40;94961.06;5439526;26;20011;-45
2024/04/21 11:53:46;;;;;;;42.50;2.20;;;;;;;5.83;60.74;94970.34;5445793;26;19995;-45
2024/04/21 11:56:11;;;;;;;21.52;1.63;;;;;;;5.78;61.11;94963.06;5446093;26;20026;-44
2024/04/21 11:58:37;;;;;;;2.10;1.20;;;;;;;5.75;61.84;94971.13;5445621;26;20360;-50
2024/04/21 12:01:04;;;;;;;12.05;1.70;;;;;;;5.77;61.16;94976.09;5436256;26;20067;-44
2024/04/21 12:03:30;;;;;;;29.33;2.55;;;;;;;5.81;61.58;94983.41;5435415;26;20014;-45
2024/04/21 12:05:55;;;;;;;5.47;1.30;;;;;;;5.90;61.20;94980.84;5433466;26;20003;-45
2024/04/21 12:08:21;;;;;;;45.88;2.42;;;;;;;6.25;60.11;94982.47;5403835;26;20003;-45
2024/04/21 12:10:46;;;;;;;9.15;1.58;;;;;;;6.06;60.29;94984.34;5435968;26;19996;-47
2024/04/21 12:13:11;;;;;;;53.33;2.95;;;;;;;6.14;60.22;94991.31;5442932;26;20003;-45
2024/04/21 12:15:37;;;;;;;17.10;1.90;;;;;;;5.87;61.09;94987.94;5445428;26;20569;-45
2024/04/21 12:18:09;;;;;;;7.88;1.67;;;;;;;6.07;59.79;94987.72;5446300;26;20014;-44
2024/04/21 12:20:36;;;;;;;3.03;1.60;;;;;;;6.01;60.31;94990.94;5483037;26;20002;-48
2024/04/21 12:23:02;;;;;;;1.50;1.40;;;;;;;5.61;61.80;94982.00;5434250;26;20022;-45
2024/04/21 12:25:28;;;;;;;1.52;1.42;;;;;;;5.84;60.78;94987.44;5441301;26;20054;-45
2024/04/21 12:27:53;;;;;;;2.10;1.63;;;;;;;5.70;61.75;94982.84;5452009;26;20001;-45
2024/04/21 12:30:19;;;;;;;1.50;1.40;;;;;;;5.80;61.49;94979.19;5411363;26;19995;-45
2024/04/21 12:32:45;;;;;;;1.27;1.17;;;;;;;6.15;60.72;94985.19;5413504;26;20003;-45
2024/04/21 12:35:13;;;;;;;2.40;1.23;;;;;;;6.18;60.53;94979.69;5437917;26;20014;-45
2024/04/21 12:37:38;;;;;;;1.52;1.30;;;;;;;6.27;59.07;94977.97;5439886;26;20000;-46
2024/04/21 12:40:04;;;;;;;1.27;1.17;;;;;;;6.31;59.04;94970.72;5415270;26;20007;-47
2024/04/21 12:42:29;;;;;;;1.30;1.20;;;;;;;6.20;59.93;94974.38;5442887;26;20042;-47